createdAt,value
2023-03-12T13:40:29.459Z,9.80
2023-03-12T13:43:07.980Z,9.40
2023-03-12T13:45:55.183Z,9.10
2023-03-12T13:48:23.789Z,9.00
2023-03-12T13:50:54.065Z,9.10
2023-03-12T13:53:25.730Z,9.20
2023-03-12T13:56:10.525Z,9.10
2023-03-12T13:59:16.184Z,9.00
2023-03-12T14:01:48.505Z,8.80
2023-03-12T14:04:22.277Z,8.80
2023-03-12T14:07:07.647Z,8.80
2023-03-12T14:09:58.368Z,8.90
2023-03-12T14:12:46.127Z,9.00
2023-03-12T14:15:18.719Z,9.10
2023-03-12T14:17:45.980Z,9.40
2023-03-12T14:20:21.365Z,9.50
2023-03-12T14:22:58.894Z,9.80
2023-03-12T14:25:38.849Z,10.80
2023-03-12T14:28:14.175Z,12.30
2023-03-12T14:31:06.775Z,12.90
2023-03-12T14:33:45.158Z,13.40
2023-03-12T14:36:24.025Z,12.60
2023-03-12T14:38:53.378Z,11.60
2023-03-12T14:41:22.498Z,11.40
2023-03-12T14:43:53.515Z,11.10
2023-03-12T14:46:22.841Z,10.80
2023-03-12T14:48:52.175Z,10.40
2023-03-12T14:51:30.388Z,10.30
2023-03-12T14:54:02.126Z,10.10
2023-03-12T14:56:33.266Z,10.00
2023-03-12T14:59:07.112Z,9.90
2023-03-12T15:01:39.340Z,9.90
2023-03-12T15:04:15.165Z,9.90
2023-03-12T15:06:46.022Z,9.80
2023-03-12T15:09:24.808Z,9.80
2023-03-12T15:11:58.731Z,9.80
2023-03-12T15:14:27.040Z,9.80
2023-03-12T15:16:54.023Z,9.80
2023-03-12T15:19:27.388Z,9.90
2023-03-12T15:21:54.364Z,9.90
2023-03-12T15:24:21.012Z,9.90
2023-03-12T15:26:47.615Z,9.90
2023-03-12T15:29:14.165Z,9.80
2023-03-12T15:31:43.050Z,9.80
2023-03-12T15:34:11.913Z,9.80
2023-03-12T15:36:47.320Z,9.80
2023-03-12T15:39:26.511Z,9.80
2023-03-12T15:41:54.619Z,9.90
2023-03-12T15:44:27.868Z,9.90
2023-03-12T15:47:07.830Z,9.80
2023-03-12T15:49:37.171Z,9.70
2023-03-12T15:52:26.538Z,9.70
2023-03-12T15:55:26.078Z,9.60
2023-03-12T15:57:56.074Z,9.60
2023-03-12T16:00:23.190Z,9.60
2023-03-12T16:03:00.203Z,9.60
2023-03-12T16:05:36.138Z,9.60
2023-03-12T16:08:19.476Z,9.60
2023-03-12T16:10:47.124Z,9.60
2023-03-12T16:13:16.877Z,9.70
2023-03-12T16:15:43.805Z,9.60
2023-03-12T16:18:15.958Z,9.50
2023-03-12T16:20:43.060Z,9.80
2023-03-12T16:23:09.862Z,10.00
2023-03-12T16:25:37.018Z,10.00
2023-03-12T16:28:06.361Z,9.90
2023-03-12T16:30:35.466Z,9.90
2023-03-12T16:33:08.231Z,9.70
2023-03-12T16:35:35.540Z,9.70
2023-03-12T16:38:03.142Z,9.70
2023-03-12T16:40:33.997Z,9.70
2023-03-12T16:43:04.462Z,9.60
2023-03-12T16:45:33.599Z,9.50
2023-03-12T16:48:02.972Z,9.40
2023-03-12T16:50:29.771Z,9.30
2023-03-12T16:52:56.620Z,9.30
2023-03-12T16:55:27.454Z,9.20
2023-03-12T16:57:57.832Z,9.20
2023-03-12T17:00:27.332Z,9.20
2023-03-12T17:02:57.701Z,9.20
2023-03-12T17:05:25.664Z,9.20
2023-03-12T17:07:52.392Z,9.10
2023-03-12T17:10:19.109Z,9.00
2023-03-12T17:12:48.000Z,9.00
2023-03-12T17:15:25.783Z,9.00
2023-03-12T17:17:55.594Z,9.00
2023-03-12T17:20:24.395Z,9.00
2023-03-12T17:22:51.385Z,8.90
2023-03-12T17:25:27.032Z,8.90
2023-03-12T17:27:56.348Z,8.80
2023-03-12T17:30:24.133Z,8.70
2023-03-12T17:32:51.799Z,8.70
2023-03-12T17:35:19.830Z,8.60
2023-03-12T17:37:48.447Z,8.50
2023-03-12T17:40:16.215Z,8.40
2023-03-12T17:42:43.048Z,8.40
2023-03-12T17:45:10.129Z,8.40
2023-03-12T17:47:37.196Z,8.30
2023-03-12T17:50:05.772Z,8.40
2023-03-12T17:52:32.564Z,8.40
2023-03-12T17:55:00.415Z,8.30
2023-03-12T17:57:27.454Z,8.20
2023-03-12T17:59:54.090Z,8.20
2023-03-12T18:02:21.245Z,8.30
2023-03-12T18:04:48.076Z,8.20
2023-03-12T18:07:14.790Z,8.20
2023-03-12T18:09:41.443Z,8.20
2023-03-12T18:12:08.093Z,8.20
2023-03-12T18:14:34.788Z,8.20
2023-03-12T18:17:01.393Z,8.10
2023-03-12T18:19:29.322Z,8.10
2023-03-12T18:21:55.973Z,8.10
2023-03-12T18:24:22.571Z,8.10
2023-03-12T18:26:51.482Z,8.00
2023-03-12T18:29:18.327Z,8.00
2023-03-12T18:31:44.962Z,8.00
2023-03-12T18:34:11.681Z,7.90
2023-03-12T18:36:38.274Z,7.90
2023-03-12T18:39:06.340Z,7.80
2023-03-12T18:41:33.347Z,7.80
2023-03-12T18:44:00.575Z,7.80
2023-03-12T18:46:27.864Z,7.80
2023-03-12T18:48:54.555Z,7.80
2023-03-12T18:51:21.166Z,7.80
2023-03-12T18:53:47.826Z,7.80
2023-03-12T18:56:14.995Z,7.80
2023-03-12T18:58:41.628Z,7.80
2023-03-12T19:01:08.397Z,7.70
2023-03-12T19:03:36.335Z,7.70
2023-03-12T19:06:06.145Z,7.60
2023-03-12T19:08:32.973Z,7.60
2023-03-12T19:10:59.997Z,7.60
2023-03-12T19:13:26.612Z,7.60
2023-03-12T19:16:05.330Z,7.50
2023-03-12T19:18:31.999Z,7.50
2023-03-12T19:20:58.673Z,7.40
2023-03-12T19:23:25.321Z,7.40
2023-03-12T19:25:52.112Z,7.40
2023-03-12T19:28:18.700Z,7.40
2023-03-12T19:30:45.388Z,7.40
2023-03-12T19:33:12.060Z,7.40
2023-03-12T19:35:40.348Z,7.40
2023-03-12T19:38:07.643Z,7.40
2023-03-12T19:40:35.002Z,7.40
2023-03-12T19:43:02.252Z,7.40
2023-03-12T19:45:29.089Z,7.30
2023-03-12T19:47:55.795Z,7.30
2023-03-12T19:50:23.736Z,7.30
2023-03-12T19:52:50.354Z,7.30
2023-03-12T19:55:17.022Z,7.30
2023-03-12T19:57:43.609Z,7.30
2023-03-12T20:00:12.120Z,7.30
2023-03-12T20:02:39.601Z,7.30
2023-03-12T20:05:07.513Z,7.40
2023-03-12T20:07:34.213Z,7.40
2023-03-12T20:10:00.983Z,7.40
2023-03-12T20:12:27.770Z,7.40
2023-03-12T20:14:54.355Z,7.40
2023-03-12T20:17:20.944Z,7.40
2023-03-12T20:19:47.554Z,7.40
2023-03-12T20:22:14.257Z,7.40
2023-03-12T20:24:40.907Z,7.40
2023-03-12T20:27:07.775Z,7.40
2023-03-12T20:29:34.482Z,7.30
2023-03-12T20:32:01.190Z,7.40
2023-03-12T20:34:27.886Z,7.40
2023-03-12T20:36:54.488Z,7.40
2023-03-12T20:39:21.116Z,7.30
2023-03-12T20:41:49.483Z,7.40
2023-03-12T20:44:16.657Z,7.40
2023-03-12T20:46:43.252Z,7.40
2023-03-12T20:49:09.840Z,7.40
2023-03-12T20:51:36.473Z,7.50
2023-03-12T20:54:03.191Z,7.50
2023-03-12T20:56:29.862Z,7.50
2023-03-12T20:58:57.112Z,7.40
2023-03-12T21:01:23.793Z,7.40
2023-03-12T21:03:50.528Z,7.40
2023-03-12T21:06:17.204Z,7.40
2023-03-12T21:08:43.806Z,7.30
2023-03-12T21:11:10.456Z,7.40
2023-03-12T21:13:37.078Z,7.40
2023-03-12T21:16:07.745Z,7.30
2023-03-12T21:18:34.791Z,7.30
2023-03-12T21:21:06.731Z,7.30
2023-03-12T21:23:34.546Z,7.30
2023-03-12T21:26:06.156Z,7.30
2023-03-12T21:28:35.026Z,7.30
2023-03-12T21:31:11.055Z,7.30
2023-03-12T21:33:38.018Z,7.30
2023-03-12T21:36:10.339Z,7.30
2023-03-12T21:38:38.352Z,7.40
2023-03-12T21:41:11.263Z,7.40
2023-03-12T21:43:39.098Z,7.50
2023-03-12T21:46:11.005Z,7.60
2023-03-12T21:48:38.129Z,7.60
2023-03-12T21:51:07.291Z,7.50
2023-03-12T21:53:34.963Z,7.50
2023-03-12T21:56:02.611Z,7.50
2023-03-12T21:58:30.540Z,7.50
2023-03-12T22:01:09.735Z,7.50
2023-03-12T22:03:37.069Z,7.50
2023-03-12T22:06:04.630Z,7.60
2023-03-12T22:08:31.649Z,7.50
2023-03-12T22:10:58.293Z,7.50
2023-03-12T22:13:24.963Z,7.50
2023-03-12T22:16:03.262Z,7.50
2023-03-12T22:18:30.160Z,7.50
2023-03-12T22:21:03.226Z,7.50
2023-03-12T22:23:30.069Z,7.50
2023-03-12T22:26:06.216Z,7.50
2023-03-12T22:28:33.795Z,7.40
2023-03-12T22:31:06.000Z,7.40
2023-03-12T22:33:35.560Z,7.30
2023-03-12T22:36:07.503Z,7.30
2023-03-12T22:38:36.545Z,7.30
2023-03-12T22:41:13.747Z,7.40
2023-03-12T22:43:40.439Z,7.40
2023-03-12T22:46:07.601Z,7.30
2023-03-12T22:48:35.205Z,7.40
2023-03-12T22:51:01.790Z,7.40
2023-03-12T22:53:30.246Z,7.40
2023-03-12T22:55:58.451Z,7.40
2023-03-12T22:58:25.598Z,7.30
2023-03-12T23:00:59.957Z,7.30
2023-03-12T23:03:27.913Z,7.30
2023-03-12T23:05:54.612Z,7.30
2023-03-12T23:08:21.970Z,7.30
2023-03-12T23:10:59.503Z,7.30
2023-03-12T23:13:27.682Z,7.40
2023-03-12T23:15:54.614Z,7.30
2023-03-12T23:18:21.625Z,7.30
2023-03-12T23:20:57.222Z,7.20
2023-03-12T23:23:23.966Z,7.30
2023-03-12T23:25:54.679Z,7.30
2023-03-12T23:28:21.492Z,7.20
2023-03-12T23:31:04.020Z,7.10
2023-03-12T23:33:31.851Z,7.10
2023-03-12T23:36:04.835Z,7.00
2023-03-12T23:38:32.457Z,7.00
2023-03-12T23:41:04.200Z,7.00
2023-03-12T23:43:30.987Z,7.00
2023-03-12T23:46:00.044Z,6.90
2023-03-12T23:48:28.401Z,6.90
2023-03-12T23:51:02.648Z,6.90
2023-03-12T23:53:29.249Z,6.80
2023-03-12T23:56:00.358Z,6.70
2023-03-12T23:58:27.534Z,6.70
